PWSweather.com
Personal Weather Stations
Station Observations
UWIDEPER1
Brown County, Depere, WI 54115

Brown CountyDepere, WI 54115

Lat: 44.44, Lon: -88.05

Elevation: 610

Station Type: Acurite 5in1

Latest ConditionsUpdated 2:15:02 AM CST Friday, Feb 24, 2017
Currently Today's Max Today's Min Today's Average
Temperature 29.6°F-1.3°C 33.2°F0.7°C 29.6°F-1.3°C 30.5°F-0.8°C
Dew Point 27.8°F-2.3°C 29.0°F-1.7°C 27.8°F-2.3°C 28.3°F-2.1°C
Winds 8.1 mph NE13.0 kmh NE 10.4 mph NNW16.7 kmh NNW - 5.7 mph 9.2 kmh
Wind Gusts 11.5 mph18.5 kmh 11.5 mph18.5 kmh - -
Humidity 93% 93% 83% 91%
Pressure 29.78 in1008.5 mb 29.86 in1011.2 mb 29.78 in1008.5 mb -
Hour Temp Dew Point Humidity Winds Wind Gusts Pressure Precip Precip Rate Daily Precip Total
02:15 AM 29.6°F-1.3°C 27.8°F-2.3°C 93% 8.1 mph NE13.0 kmh NE 11.5 mph18.5 kmh 29.78 in1008.5 mb - 0.00 in0.0 mm 0.00 in0.0 mm
02:10 AM 29.6°F-1.3°C 27.8°F-2.3°C 93% 6.9 mph NNE11.1 kmh NNE 11.5 mph18.5 kmh 29.80 in1009.1 mb - 0.00 in0.0 mm 0.00 in0.0 mm
02:00 AM 29.6°F-1.3°C 27.8°F-2.3°C 93% 4.6 mph NE7.4 kmh NE 9.2 mph14.8 kmh 29.78 in1008.5 mb - 0.00 in0.0 mm 0.00 in0.0 mm
01:55 AM 29.8°F-1.2°C 28.0°F-2.2°C 93% 6.9 mph N11.1 kmh N 8.1 mph13.0 kmh 29.80 in1009.1 mb - 0.00 in0.0 mm 0.00 in0.0 mm
01:50 AM 29.8°F-1.2°C 28.0°F-2.2°C 93% 4.6 mph NNE7.4 kmh NNE 8.1 mph13.0 kmh 29.80 in1009.1 mb - 0.00 in0.0 mm 0.00 in0.0 mm
01:45 AM 29.8°F-1.2°C 28.0°F-2.2°C 93% 3.5 mph NE5.6 kmh NE 10.4 mph16.7 kmh 29.81 in1009.5 mb - 0.00 in0.0 mm 0.00 in0.0 mm
01:40 AM 29.8°F-1.2°C 28.0°F-2.2°C 93% 5.8 mph NNE9.3 kmh NNE 10.4 mph16.7 kmh 29.81 in1009.5 mb - 0.00 in0.0 mm 0.00 in0.0 mm
01:35 AM 29.8°F-1.2°C 28.0°F-2.2°C 93% 6.9 mph NNE11.1 kmh NNE 10.4 mph16.7 kmh 29.81 in1009.5 mb - 0.00 in0.0 mm 0.00 in0.0 mm
01:30 AM 29.8°F-1.2°C 28.0°F-2.2°C 93% 10.4 mph NNW16.7 kmh NNW 10.4 mph16.7 kmh 29.80 in1009.1 mb - 0.00 in0.0 mm 0.00 in0.0 mm
01:25 AM 29.8°F-1.2°C 28.0°F-2.2°C 93% 8.1 mph E13.0 kmh E 11.5 mph18.5 kmh 29.80 in1009.1 mb - 0.00 in0.0 mm 0.00 in0.0 mm
01:20 AM 29.8°F-1.2°C 28.0°F-2.2°C 93% 4.6 mph NE7.4 kmh NE 11.5 mph18.5 kmh 29.80 in1009.1 mb - 0.00 in0.0 mm 0.00 in0.0 mm
01:15 AM 30.0°F-1.1°C 28.2°F-2.1°C 93% 3.5 mph N5.6 kmh N 6.9 mph11.1 kmh 29.80 in1009.1 mb - 0.00 in0.0 mm 0.00 in0.0 mm
01:10 AM 30.0°F-1.1°C 28.2°F-2.1°C 93% 5.8 mph NE9.3 kmh NE 6.9 mph11.1 kmh 29.80 in1009.1 mb - 0.00 in0.0 mm 0.00 in0.0 mm
01:00 AM 30.3°F-0.9°C 28.5°F-1.9°C 93% 4.6 mph E7.4 kmh E 8.1 mph13.0 kmh 29.82 in1009.8 mb - 0.00 in0.0 mm 0.00 in0.0 mm
12:55 AM 30.3°F-0.9°C 28.5°F-1.9°C 93% 4.6 mph E7.4 kmh E 10.4 mph16.7 kmh 29.83 in1010.2 mb - 0.00 in0.0 mm 0.00 in0.0 mm
12:50 AM 30.5°F-0.8°C 28.2°F-2.1°C 91% 6.9 mph NE11.1 kmh NE 10.4 mph16.7 kmh 29.83 in1010.2 mb - 0.00 in0.0 mm 0.00 in0.0 mm
12:45 AM 30.7°F-0.7°C 28.4°F-2.0°C 91% 4.6 mph NNE7.4 kmh NNE 9.2 mph14.8 kmh 29.83 in1010.2 mb - 0.00 in0.0 mm 0.00 in0.0 mm
12:40 AM 30.8°F-0.7°C 28.5°F-1.9°C 91% 4.6 mph NE7.4 kmh NE 9.2 mph14.8 kmh 29.84 in1010.5 mb - 0.00 in0.0 mm 0.00 in0.0 mm
12:35 AM 31.2°F-0.4°C 28.9°F-1.7°C 91% 4.6 mph NNE7.4 kmh NNE 8.1 mph13.0 kmh 29.83 in1010.2 mb - 0.00 in0.0 mm 0.00 in0.0 mm
12:30 AM 31.5°F-0.3°C 28.4°F-2.0°C 88% 4.6 mph NE7.4 kmh NE 8.1 mph13.0 kmh 29.84 in1010.5 mb - 0.00 in0.0 mm 0.00 in0.0 mm
12:25 AM 31.6°F-0.2°C 28.5°F-1.9°C 88% 6.9 mph NNE11.1 kmh NNE 8.1 mph13.0 kmh 29.83 in1010.2 mb - 0.00 in0.0 mm 0.00 in0.0 mm
12:20 AM 31.7°F-0.2°C 28.6°F-1.9°C 88% 4.6 mph NE7.4 kmh NE 6.9 mph11.1 kmh 29.84 in1010.5 mb - 0.00 in0.0 mm 0.00 in0.0 mm
12:15 AM 32.2°F0.1°C 29.0°F-1.7°C 88% 3.5 mph WNW5.6 kmh WNW 9.2 mph14.8 kmh 29.84 in1010.5 mb - 0.00 in0.0 mm 0.00 in0.0 mm
12:10 AM 32.4°F0.2°C 28.7°F-1.8°C 86% 5.8 mph NNW9.3 kmh NNW 9.2 mph14.8 kmh 29.85 in1010.8 mb - 0.00 in0.0 mm 0.00 in0.0 mm
12:00 AM 33.2°F0.7°C 28.6°F-1.9°C 83% 8.1 mph NW13.0 kmh NW 10.4 mph16.7 kmh 29.86 in1011.2 mb - 0.00 in0.0 mm 0.00 in0.0 mm